Time;durP1;ratioP1;P1;durP2;ratioP2;P2;SDS_P1;SDS_P2;PMS_P1;PMS_P2;Temp;Humidity;BMP_temperature;BMP_pressure;BME280_temperature;BME280_humidity;BME280_pressure;Samples;Min_cycle;Max_cycle;Signal;HPM_P1;HPM_P2
2023/07/12 00:00:30;;;;;;;9.65;5.53;;;22.40;99.90;;;;;;5039465;28;20171;-79
2023/07/12 00:02:57;;;;;;;10.13;5.25;;;22.30;99.90;;;;;;5058426;28;20249;-79
2023/07/12 00:05:27;;;;;;;8.05;5.20;;;22.30;99.90;;;;;;5039817;28;20182;-79
2023/07/12 00:07:53;;;;;;;9.77;4.57;;;22.30;99.90;;;;;;5039617;28;20261;-79
2023/07/12 00:10:23;;;;;;;14.02;5.82;;;22.30;99.90;;;;;;5039722;28;20198;-80
2023/07/12 00:12:49;;;;;;;10.98;4.78;;;22.20;99.90;;;;;;5058000;28;20186;-80
2023/07/12 00:15:22;;;;;;;13.18;5.45;;;22.20;99.90;;;;;;5058550;28;20526;-79
2023/07/12 00:17:50;;;;;;;10.38;5.00;;;22.10;99.90;;;;;;5040080;28;20205;-79
2023/07/12 00:20:27;;;;;;;10.50;5.60;;;22.10;99.90;;;;;;5039527;28;20229;-79
2023/07/12 00:22:53;;;;;;;13.68;4.53;;;22.00;99.90;;;;;;5057691;28;20205;-79
2023/07/12 00:25:21;;;;;;;9.80;5.15;;;22.00;99.90;;;;;;5042547;28;20681;-79
2023/07/12 00:27:48;;;;;;;8.57;4.45;;;21.90;99.90;;;;;;5056633;28;20174;-78
2023/07/12 00:30:17;;;;;;;11.15;4.90;;;21.90;99.90;;;;;;5055579;28;20251;-78
2023/07/12 00:32:43;;;;;;;8.27;3.95;;;21.80;99.90;;;;;;5059980;28;20253;-81
2023/07/12 00:35:17;;;;;;;7.15;4.13;;;21.80;99.90;;;;;;5043745;28;20198;-80
2023/07/12 00:37:44;;;;;;;6.57;3.92;;;21.70;99.90;;;;;;5043507;28;20287;-81
2023/07/12 00:40:38;;;;;;;11.40;4.68;;;21.80;99.90;;;;;;5060765;28;20249;-81
2023/07/12 00:43:39;;;;;;;11.98;3.67;;;21.70;99.90;;;;;;5024902;28;20187;-82
2023/07/12 00:46:16;;;;;;;6.40;3.45;;;21.70;99.90;;;;;;5057805;28;20178;-82
2023/07/12 00:48:46;;;;;;;4.13;3.15;;;21.70;99.90;;;;;;5044019;28;20240;-81
2023/07/12 00:51:34;;;;;;;4.57;3.05;;;21.70;99.90;;;;;;5063805;28;20193;-81
2023/07/12 00:54:00;;;;;;;7.53;2.97;;;21.60;99.90;;;;;;5046833;28;20214;-81
2023/07/12 00:56:27;;;;;;;5.97;3.15;;;21.60;99.90;;;;;;5063882;28;20195;-82
2023/07/12 00:59:06;;;;;;;4.22;3.03;;;21.60;99.90;;;;;;5064350;28;20197;-81
2023/07/12 01:01:34;;;;;;;5.40;3.22;;;21.50;99.90;;;;;;5064592;28;20166;-81
2023/07/12 01:04:02;;;;;;;4.88;2.88;;;21.40;99.90;;;;;;5043020;28;20183;-83
2023/07/12 01:06:29;;;;;;;4.30;2.53;;;21.30;99.90;;;;;;5043428;28;20236;-82
2023/07/12 01:08:58;;;;;;;8.00;3.22;;;21.10;99.90;;;;;;5061049;28;20563;-81
2023/07/12 01:11:23;;;;;;;4.38;2.78;;;21.00;99.90;;;;;;5061436;28;20174;-82
2023/07/12 01:13:50;;;;;;;5.78;3.20;;;21.00;99.90;;;;;;5042959;28;20186;-82
2023/07/12 01:16:20;;;;;;;4.53;3.00;;;21.10;99.90;;;;;;5041492;28;20593;-82
2023/07/12 01:18:46;;;;;;;5.68;2.90;;;21.10;99.90;;;;;;5042300;28;20201;-82
2023/07/12 01:21:18;;;;;;;5.55;3.35;;;21.00;99.90;;;;;;5060163;28;20190;-82
2023/07/12 01:23:45;;;;;;;4.82;3.00;;;20.70;99.90;;;;;;5042477;28;20182;-81
2023/07/12 01:26:32;;;;;;;5.28;3.03;;;20.70;99.90;;;;;;5061615;28;20189;-82
2023/07/12 01:29:01;;;;;;;6.97;3.67;;;20.70;99.90;;;;;;5062487;28;20186;-81
2023/07/12 01:31:28;;;;;;;6.07;3.10;;;20.70;99.90;;;;;;5061297;28;20232;-82
2023/07/12 01:33:54;;;;;;;6.70;4.13;;;20.60;99.90;;;;;;5043345;28;20212;-82
2023/07/12 01:36:21;;;;;;;7.50;3.65;;;20.40;99.90;;;;;;5060977;28;20639;-81
2023/07/12 01:38:51;;;;;;;6.70;3.85;;;20.40;99.90;;;;;;5042291;28;20194;-80
2023/07/12 01:41:17;;;;;;;8.85;3.28;;;20.50;99.90;;;;;;5061468;28;20647;-81
2023/07/12 01:43:43;;;;;;;7.25;4.03;;;20.60;99.90;;;;;;5045480;28;20181;-83
2023/07/12 01:46:09;;;;;;;8.35;4.30;;;20.50;99.90;;;;;;5064469;28;20174;-82
2023/07/12 01:48:35;;;;;;;6.03;3.88;;;20.60;99.90;;;;;;5046970;28;20210;-82
2023/07/12 01:51:01;;;;;;;6.28;3.33;;;20.50;99.90;;;;;;5065128;28;20225;-83
2023/07/12 01:53:28;;;;;;;4.80;3.50;;;20.50;99.90;;;;;;5064664;28;20193;-83
2023/07/12 01:55:54;;;;;;;4.30;3.30;;;20.50;99.90;;;;;;5062288;28;20190;-81
2023/07/12 01:58:20;;;;;;;7.85;3.38;;;20.50;99.90;;;;;;5041949;28;20260;-81
2023/07/12 02:00:47;;;;;;;6.97;3.45;;;20.40;99.90;;;;;;5061049;28;20205;-81
2023/07/12 02:03:15;;;;;;;6.00;3.33;;;20.30;99.90;;;;;;5040304;28;20182;-81
2023/07/12 02:05:41;;;;;;;4.95;3.80;;;20.40;99.90;;;;;;5058178;28;20162;-81
2023/07/12 02:08:07;;;;;;;5.20;3.45;;;20.20;99.90;;;;;;5041323;28;20239;-82
2023/07/12 02:10:33;;;;;;;6.20;3.80;;;20.30;99.90;;;;;;5045849;28;20269;-82
2023/07/12 02:12:59;;;;;;;7.25;3.45;;;20.30;99.90;;;;;;5062121;28;20236;-80
2023/07/12 02:15:24;;;;;;;5.55;2.95;;;20.10;99.90;;;;;;5063398;28;20170;-80
2023/07/12 02:17:50;;;;;;;4.97;2.97;;;20.10;99.90;;;;;;5051758;28;20744;-80
2023/07/12 02:20:16;;;;;;;4.78;3.17;;;20.20;99.90;;;;;;5048162;28;20190;-80
2023/07/12 02:22:44;;;;;;;5.55;2.75;;;20.10;99.90;;;;;;5064030;28;20166;-80
2023/07/12 02:25:11;;;;;;;4.10;2.22;;;20.10;99.90;;;;;;5067215;28;20186;-80
2023/07/12 02:27:38;;;;;;;2.85;2.13;;;20.20;99.90;;;;;;5066193;28;20293;-80
2023/07/12 02:30:10;;;;;;;2.85;2.00;;;20.10;99.90;;;;;;5047681;28;20655;-80
2023/07/12 02:32:36;;;;;;;2.60;2.03;;;19.90;99.90;;;;;;5045515;28;20659;-79
2023/07/12 02:35:03;;;;;;;3.75;2.30;;;19.80;99.90;;;;;;5065668;28;20213;-81
2023/07/12 02:37:29;;;;;;;5.45;2.40;;;19.60;99.90;;;;;;5066619;28;20195;-82
2023/07/12 02:39:55;;;;;;;3.03;2.38;;;19.50;99.90;;;;;;5066290;28;20745;-82
2023/07/12 02:42:21;;;;;;;3.10;2.30;;;19.40;99.90;;;;;;5048151;28;20171;-82
2023/07/12 02:44:47;;;;;;;4.93;2.40;;;19.30;99.90;;;;;;5049416;28;20272;-83
2023/07/12 02:47:13;;;;;;;4.80;2.47;;;19.20;99.90;;;;;;5066386;28;20171;-82
2023/07/12 02:49:39;;;;;;;3.05;2.38;;;19.20;99.90;;;;;;5047165;28;20217;-81
2023/07/12 02:52:07;;;;;;;3.40;2.50;;;19.10;99.90;;;;;;5061976;28;20651;-81
2023/07/12 02:54:33;;;;;;;3.40;2.50;;;19.00;99.90;;;;;;5061681;28;20174;-81
2023/07/12 02:57:00;;;;;;;4.95;3.00;;;19.10;99.90;;;;;;5061341;28;20252;-81
2023/07/12 02:59:26;;;;;;;5.28;2.75;;;19.10;99.90;;;;;;5062012;28;20210;-82
2023/07/12 03:01:52;;;;;;;6.10;2.90;;;19.10;99.90;;;;;;5043515;28;20193;-81
2023/07/12 03:04:19;;;;;;;6.50;3.10;;;19.10;99.90;;;;;;5062215;28;20182;-80
2023/07/12 03:06:45;;;;;;;6.22;2.90;;;19.10;99.90;;;;;;5043540;28;20188;-80
2023/07/12 03:09:11;;;;;;;5.60;2.30;;;19.10;99.90;;;;;;5062904;28;20277;-84
2023/07/12 03:11:37;;;;;;;4.13;3.03;;;19.10;99.90;;;;;;5046870;28;20261;-84
2023/07/12 03:14:03;;;;;;;4.43;2.60;;;19.00;99.90;;;;;;5046001;28;20224;-85
2023/07/12 03:16:29;;;;;;;5.20;2.60;;;18.90;99.90;;;;;;5060225;28;20697;-84
2023/07/12 03:18:55;;;;;;;5.28;2.95;;;18.90;99.90;;;;;;5060445;28;20194;-84
2023/07/12 03:21:21;;;;;;;4.45;2.90;;;18.80;99.90;;;;;;5043073;28;20179;-84
2023/07/12 03:23:47;;;;;;;4.88;2.65;;;18.90;99.90;;;;;;5061805;28;20223;-85
2023/07/12 03:26:14;;;;;;;9.10;2.95;;;19.00;99.90;;;;;;5045418;28;20225;-83
2023/07/12 03:28:39;;;;;;;5.20;3.15;;;19.10;99.90;;;;;;5045969;28;20198;-83
2023/07/12 03:31:12;;;;;;;6.45;3.53;;;19.20;99.90;;;;;;5046318;28;20323;-84
2023/07/12 03:33:39;;;;;;;5.00;3.17;;;19.00;99.90;;;;;;5064624;28;20234;-83
2023/07/12 03:36:05;;;;;;;7.72;3.60;;;19.00;99.90;;;;;;5046166;28;20190;-82
2023/07/12 03:38:32;;;;;;;6.97;4.03;;;19.00;99.90;;;;;;5061354;28;20293;-83
2023/07/12 03:41:03;;;;;;;7.25;3.40;;;19.00;99.90;;;;;;5064568;28;20544;-83
2023/07/12 03:43:30;;;;;;;7.82;3.40;;;18.90;99.90;;;;;;5046586;28;20231;-83
2023/07/12 03:45:55;;;;;;;7.18;3.45;;;18.80;99.90;;;;;;5064073;28;20174;-84
2023/07/12 03:48:23;;;;;;;11.35;3.72;;;18.70;99.90;;;;;;5065425;28;20201;-83
2023/07/12 03:50:50;;;;;;;7.18;3.47;;;18.70;99.90;;;;;;5046302;28;20237;-84
2023/07/12 03:53:16;;;;;;;6.88;3.40;;;18.60;99.90;;;;;;5044419;28;20204;-83
2023/07/12 03:55:46;;;;;;;7.07;3.55;;;18.60;99.90;;;;;;5061739;28;20174;-84
2023/07/12 03:58:15;;;;;;;7.32;3.40;;;18.60;99.90;;;;;;5062091;28;20201;-85
2023/07/12 04:00:42;;;;;;;4.97;3.00;;;18.50;99.90;;;;;;5045326;28;20179;-84
2023/07/12 04:03:11;;;;;;;8.35;3.00;;;18.50;99.90;;;;;;5045970;28;20179;-83
2023/07/12 04:05:39;;;;;;;5.00;2.65;;;18.40;99.90;;;;;;5045485;28;20171;-84
2023/07/12 04:08:06;;;;;;;4.38;2.78;;;18.40;99.90;;;;;;5045832;28;20170;-83
2023/07/12 04:10:32;;;;;;;5.35;2.67;;;18.40;99.90;;;;;;5045471;28;20189;-83
2023/07/12 04:13:02;;;;;;;6.32;3.30;;;18.20;99.90;;;;;;5046826;28;20257;-83
2023/07/12 04:15:28;;;;;;;3.83;2.88;;;18.20;99.90;;;;;;5065303;28;20163;-83
2023/07/12 04:17:54;;;;;;;5.85;3.20;;;18.20;99.90;;;;;;5046906;28;20194;-83
2023/07/12 04:20:20;;;;;;;5.40;3.13;;;18.10;99.90;;;;;;5050280;28;20202;-84
2023/07/12 04:22:50;;;;;;;6.10;3.20;;;18.20;99.90;;;;;;5046886;28;20702;-83
2023/07/12 04:25:15;;;;;;;7.32;3.28;;;18.10;99.90;;;;;;5046083;28;20174;-84
2023/07/12 04:27:41;;;;;;;6.72;3.10;;;18.10;99.90;;;;;;5064304;28;20198;-83
2023/07/12 04:30:10;;;;;;;7.70;3.47;;;18.10;99.90;;;;;;5046868;28;20281;-83
2023/07/12 04:32:36;;;;;;;7.07;3.35;;;18.10;99.90;;;;;;5045810;28;20175;-83
2023/07/12 04:35:03;;;;;;;6.72;3.35;;;18.00;99.90;;;;;;5046232;28;20252;-83
2023/07/12 04:37:29;;;;;;;5.93;3.20;;;18.10;99.90;;;;;;5064054;28;20194;-83
2023/07/12 04:39:55;;;;;;;5.10;3.13;;;18.10;99.90;;;;;;5060514;28;20182;-80
2023/07/12 04:42:21;;;;;;;5.40;2.97;;;18.10;99.90;;;;;;5059467;28;20178;-80
2023/07/12 04:44:47;;;;;;;5.60;3.00;;;18.20;99.90;;;;;;5059667;28;20170;-80
2023/07/12 04:47:15;;;;;;;3.88;2.72;;;18.30;99.90;;;;;;5059280;28;20186;-80
2023/07/12 04:49:41;;;;;;;4.93;3.13;;;18.40;99.90;;;;;;5041086;28;20568;-80
2023/07/12 04:52:07;;;;;;;4.82;2.85;;;18.50;99.90;;;;;;5041066;28;20253;-80
2023/07/12 04:54:34;;;;;;;4.20;3.20;;;18.50;99.90;;;;;;5041498;28;20600;-80
2023/07/12 04:57:00;;;;;;;3.45;2.78;;;18.60;99.90;;;;;;5059240;28;20190;-80
2023/07/12 04:59:25;;;;;;;5.53;2.83;;;18.60;99.90;;;;;;5041536;28;20201;-80
2023/07/12 05:01:51;;;;;;;5.15;3.25;;;18.60;99.90;;;;;;5059198;28;20287;-80
2023/07/12 05:04:17;;;;;;;7.40;3.03;;;18.40;99.90;;;;;;5041635;28;20162;-80
2023/07/12 05:06:44;;;;;;;4.32;2.78;;;18.50;99.90;;;;;;5059116;28;20669;-80
2023/07/12 05:09:10;;;;;;;6.10;2.40;;;18.50;99.90;;;;;;5041135;28;20202;-80
2023/07/12 05:11:36;;;;;;;4.85;2.85;;;18.50;99.90;;;;;;5041260;28;20175;-80
2023/07/12 05:14:02;;;;;;;5.10;2.33;;;18.50;99.90;;;;;;5059131;28;20575;-81
2023/07/12 05:16:27;;;;;;;3.97;2.80;;;18.60;99.90;;;;;;5041488;28;20186;-81
2023/07/12 05:18:53;;;;;;;5.20;2.80;;;18.50;99.90;;;;;;5042379;28;20202;-83
2023/07/12 05:21:20;;;;;;;5.22;2.42;;;18.50;99.90;;;;;;5043261;28;20247;-83
2023/07/12 05:23:46;;;;;;;4.18;2.50;;;18.40;99.90;;;;;;5040883;28;20713;-84
2023/07/12 05:26:12;;;;;;;5.78;2.03;;;18.30;99.90;;;;;;5042284;28;20198;-83
2023/07/12 05:28:38;;;;;;;3.58;2.50;;;18.40;99.90;;;;;;5042222;28;20206;-83
2023/07/12 05:31:12;;;;;;;4.03;2.38;;;18.40;99.90;;;;;;5060404;28;20174;-83
2023/07/12 05:33:42;;;;;;;4.82;2.28;;;18.60;99.90;;;;;;5043686;28;20178;-83
2023/07/12 05:36:08;;;;;;;5.70;2.00;;;18.60;99.90;;;;;;5044563;28;20201;-84
2023/07/12 05:38:34;;;;;;;3.97;2.28;;;18.70;99.90;;;;;;5044253;28;20237;-83
2023/07/12 05:41:00;;;;;;;4.28;2.30;;;18.80;99.90;;;;;;5043848;28;20646;-84
2023/07/12 05:43:26;;;;;;;4.47;2.33;;;18.70;99.90;;;;;;5040891;28;20252;-84
2023/07/12 05:45:52;;;;;;;4.00;2.30;;;18.70;99.90;;;;;;5058147;28;20175;-83
2023/07/12 05:48:18;;;;;;;2.30;2.10;;;18.80;99.90;;;;;;5041417;28;20186;-84
2023/07/12 05:50:50;;;;;;;2.45;1.92;;;18.80;99.90;;;;;;5043395;28;20521;-84
2023/07/12 05:53:15;;;;;;;2.13;1.67;;;18.80;99.90;;;;;;5042572;28;20177;-85
2023/07/12 05:55:41;;;;;;;3.20;1.70;;;18.70;99.90;;;;;;5062542;28;20234;-84
2023/07/12 05:58:07;;;;;;;2.40;1.90;;;18.80;99.90;;;;;;5042697;28;20259;-85
2023/07/12 06:00:32;;;;;;;2.90;1.80;;;18.70;99.90;;;;;;5065676;28;20166;-84
2023/07/12 06:02:58;;;;;;;2.55;1.85;;;18.70;99.90;;;;;;5067777;28;20181;-84
2023/07/12 06:05:24;;;;;;;2.78;2.08;;;18.70;99.90;;;;;;5049558;28;20182;-85
2023/07/12 06:07:50;;;;;;;6.82;2.95;;;18.70;99.90;;;;;;5047747;28;20607;-84
2023/07/12 06:10:16;;;;;;;2.42;2.03;;;18.80;99.90;;;;;;5044351;28;20678;-84
2023/07/12 06:12:43;;;;;;;3.15;1.83;;;18.80;99.90;;;;;;5044782;28;20178;-84
2023/07/12 06:15:09;;;;;;;5.57;2.00;;;18.80;99.90;;;;;;5043850;28;20723;-85
2023/07/12 06:17:35;;;;;;;2.83;1.90;;;18.80;99.90;;;;;;5061040;28;20194;-85
2023/07/12 06:20:00;;;;;;;2.75;1.90;;;18.70;99.90;;;;;;5043453;28;20710;-85
2023/07/12 06:22:26;;;;;;;2.33;2.08;;;18.60;99.90;;;;;;5044074;28;20269;-85
2023/07/12 06:24:52;;;;;;;4.00;1.85;;;18.50;99.90;;;;;;5045503;28;20190;-84
2023/07/12 06:27:18;;;;;;;2.28;1.85;;;18.50;99.90;;;;;;5063049;28;20183;-84
2023/07/12 06:29:48;;;;;;;2.60;1.92;;;18.50;99.90;;;;;;5057973;28;20601;-84
2023/07/12 06:32:14;;;;;;;2.33;1.60;;;18.40;99.90;;;;;;5057626;28;20221;-85
2023/07/12 06:34:40;;;;;;;4.35;1.92;;;18.30;99.90;;;;;;5039113;28;20232;-85
2023/07/12 06:37:08;;;;;;;5.65;1.83;;;18.30;99.90;;;;;;5038497;28;20206;-86
2023/07/12 06:39:37;;;;;;;2.55;1.92;;;18.20;99.90;;;;;;5060443;28;20236;-85
2023/07/12 06:42:03;;;;;;;3.17;2.00;;;18.20;99.90;;;;;;5041299;28;20174;-86
2023/07/12 06:44:29;;;;;;;2.05;1.77;;;18.10;99.90;;;;;;5059594;28;20220;-84
2023/07/12 06:46:54;;;;;;;3.15;2.15;;;18.10;99.90;;;;;;5039844;28;20186;-86
2023/07/12 06:49:20;;;;;;;2.85;1.92;;;18.00;99.90;;;;;;5057331;28;20202;-85
2023/07/12 06:51:46;;;;;;;2.42;2.22;;;18.00;99.90;;;;;;5055901;28;20178;-85
2023/07/12 06:54:14;;;;;;;6.10;1.90;;;18.00;99.90;;;;;;5057367;28;20178;-85
2023/07/12 06:56:40;;;;;;;2.15;1.85;;;18.00;99.90;;;;;;5060264;28;20669;-85
2023/07/12 06:59:06;;;;;;;2.78;2.03;;;18.00;99.90;;;;;;5060247;28;20202;-85
2023/07/12 07:01:32;;;;;;;4.43;2.17;;;17.90;99.90;;;;;;5042859;28;20547;-85
2023/07/12 07:03:58;;;;;;;2.75;1.90;;;18.00;99.90;;;;;;5061371;28;20190;-85
2023/07/12 07:06:24;;;;;;;3.22;2.33;;;18.10;99.90;;;;;;5061638;28;20235;-84
2023/07/12 07:08:50;;;;;;;4.30;2.53;;;18.20;99.90;;;;;;5043355;28;20297;-82
2023/07/12 07:11:16;;;;;;;3.92;1.90;;;18.20;99.90;;;;;;5042604;28;20179;-81
2023/07/12 07:13:43;;;;;;;4.47;2.20;;;18.20;99.90;;;;;;5043096;28;20649;-82
2023/07/12 07:16:09;;;;;;;3.63;2.60;;;18.20;99.90;;;;;;5062882;28;20175;-82
2023/07/12 07:18:35;;;;;;;3.38;2.00;;;18.20;99.90;;;;;;5041754;28;20256;-82
2023/07/12 07:21:01;;;;;;;3.63;2.45;;;18.20;99.90;;;;;;5041117;28;20187;-82
2023/07/12 07:23:27;;;;;;;4.32;2.10;;;18.30;99.90;;;;;;5040505;28;20174;-82
2023/07/12 07:25:53;;;;;;;3.25;2.03;;;18.40;99.90;;;;;;5057886;28;20202;-83
2023/07/12 07:28:20;;;;;;;2.63;2.10;;;18.70;99.90;;;;;;5039873;28;20217;-84
2023/07/12 07:30:55;;;;;;;5.07;2.40;;;18.70;99.90;;;;;;5057877;28;20723;-82
2023/07/12 07:33:21;;;;;;;3.25;2.40;;;18.70;99.90;;;;;;5057288;28;20248;-82
2023/07/12 07:35:46;;;;;;;5.35;2.45;;;18.70;99.90;;;;;;5039542;28;20213;-81
2023/07/12 07:38:13;;;;;;;3.95;2.20;;;18.80;99.90;;;;;;5039106;28;20244;-81
2023/07/12 07:40:42;;;;;;;3.53;2.35;;;19.10;99.90;;;;;;5057044;28;20171;-81
2023/07/12 07:43:13;;;;;;;4.30;2.25;;;19.20;99.90;;;;;;5057929;28;20209;-81
2023/07/12 07:45:39;;;;;;;3.78;2.20;;;19.40;99.90;;;;;;5058289;28;20159;-82
2023/07/12 07:48:05;;;;;;;4.10;2.35;;;19.30;99.90;;;;;;5040138;28;20179;-84
2023/07/12 07:50:31;;;;;;;4.57;2.30;;;19.20;99.90;;;;;;5057897;28;20174;-81
2023/07/12 07:52:57;;;;;;;6.50;2.35;;;19.10;99.90;;;;;;5057621;28;20666;-82
2023/07/12 07:55:22;;;;;;;5.93;2.58;;;18.80;99.90;;;;;;5039409;28;20280;-82
2023/07/12 07:57:48;;;;;;;5.53;2.70;;;18.80;99.90;;;;;;5058097;28;20272;-84
2023/07/12 08:00:15;;;;;;;5.82;2.45;;;18.60;99.90;;;;;;5058170;28;20244;-82
2023/07/12 08:02:42;;;;;;;5.82;2.60;;;18.60;99.90;;;;;;5057984;28;20173;-83
2023/07/12 08:05:09;;;;;;;4.60;2.10;;;18.70;99.90;;;;;;5039500;28;20179;-81
2023/07/12 08:07:39;;;;;;;7.63;2.97;;;19.00;99.90;;;;;;5056620;28;20171;-81
2023/07/12 08:10:08;;;;;;;5.28;2.38;;;19.20;99.90;;;;;;5039618;28;20198;-83
2023/07/12 08:12:33;;;;;;;6.43;2.38;;;19.30;91.40;;;;;;5057227;28;20178;-82
2023/07/12 08:14:59;;;;;;;8.15;2.80;;;19.40;72.80;;;;;;5039201;28;20574;-82
2023/07/12 08:17:25;;;;;;;5.63;2.47;;;19.60;96.70;;;;;;5057518;28;20191;-81
2023/07/12 08:19:52;;;;;;;4.95;2.40;;;19.60;95.20;;;;;;5039044;28;20187;-82
2023/07/12 08:22:21;;;;;;;2.65;2.00;;;19.90;99.90;;;;;;5039734;28;20544;-82
2023/07/12 08:24:47;;;;;;;5.35;2.45;;;20.10;82.70;;;;;;5057827;28;20193;-82
2023/07/12 08:27:15;;;;;;;4.47;2.20;;;20.30;29.90;;;;;;5057470;28;20650;-81
2023/07/12 08:29:42;;;;;;;2.88;2.05;;;20.40;11.10;;;;;;5039388;28;20264;-80
2023/07/12 08:32:08;;;;;;;5.63;2.58;;;20.30;1.00;;;;;;5057174;28;20181;-80
2023/07/12 08:34:34;;;;;;;4.82;2.28;;;20.00;1.00;;;;;;5039745;28;20635;-81
2023/07/12 08:37:00;;;;;;;3.88;2.35;;;19.80;25.50;;;;;;5041266;28;20194;-83
2023/07/12 08:39:26;;;;;;;4.90;2.20;;;19.60;45.20;;;;;;5040262;28;20194;-82
2023/07/12 08:41:52;;;;;;;3.30;2.10;;;19.70;30.00;;;;;;5058621;28;20178;-82
2023/07/12 08:44:18;;;;;;;3.15;2.15;;;19.70;11.80;;;;;;5057582;28;20179;-81
2023/07/12 08:46:56;;;;;;;4.13;2.28;;;20.00;1.00;;;;;;5038605;28;20209;-81
2023/07/12 08:49:23;;;;;;;3.45;1.90;;;20.10;1.00;;;;;;5056799;28;20205;-81
2023/07/12 08:51:50;;;;;;;6.13;2.25;;;20.00;1.00;;;;;;5039374;28;20178;-81
2023/07/12 08:54:27;;;;;;;3.30;1.90;;;19.90;1.00;;;;;;5038723;28;20178;-81
2023/07/12 08:57:11;;;;;;;4.38;2.50;;;20.10;1.00;;;;;;5056627;28;20181;-81
2023/07/12 08:59:37;;;;;;;6.30;2.40;;;20.20;1.00;;;;;;5056461;28;20198;-82
2023/07/12 09:02:11;;;;;;;4.40;2.08;;;20.40;1.00;;;;;;5056793;28;20167;-81
2023/07/12 09:04:37;;;;;;;5.07;2.13;;;20.40;1.00;;;;;;5056693;28;20167;-82
2023/07/12 09:07:07;;;;;;;4.50;2.08;;;20.50;1.00;;;;;;5038922;28;20185;-81
2023/07/12 09:09:38;;;;;;;4.47;2.00;;;20.60;1.00;;;;;;5056975;28;20190;-82
2023/07/12 09:12:07;;;;;;;3.83;2.10;;;20.70;99.90;;;;;;5039066;28;20185;-81
2023/07/12 09:14:36;;;;;;;3.35;2.17;;;20.80;1.00;;;;;;5056273;28;20174;-82
2023/07/12 09:17:02;;;;;;;5.65;2.40;;;21.00;99.90;;;;;;5038200;28;20198;-82
2023/07/12 09:19:36;;;;;;;5.20;2.17;;;21.10;99.90;;;;;;5056898;28;20197;-83
2023/07/12 09:22:15;;;;;;;4.32;2.00;;;21.10;1.00;;;;;;5058369;28;20170;-82
2023/07/12 09:24:51;;;;;;;3.72;2.15;;;21.00;99.90;;;;;;5038996;28;20162;-81
2023/07/12 09:27:23;;;;;;;4.60;2.35;;;21.00;99.90;;;;;;5056598;28;20227;-80
2023/07/12 09:29:58;;;;;;;9.15;2.42;;;21.00;99.90;;;;;;5056246;28;20197;-81
2023/07/12 09:32:31;;;;;;;5.65;2.20;;;20.80;99.90;;;;;;5056627;28;20154;-82
2023/07/12 09:34:57;;;;;;;3.92;2.00;;;20.60;99.90;;;;;;5056528;28;20163;-81
2023/07/12 09:37:24;;;;;;;5.53;2.40;;;20.40;99.90;;;;;;5037877;28;20194;-81
2023/07/12 09:39:58;;;;;;;5.22;2.58;;;20.40;1.00;;;;;;5037442;28;20202;-82
2023/07/12 09:42:26;;;;;;;4.25;2.22;;;20.20;99.90;;;;;;5055741;28;20246;-82
2023/07/12 09:44:52;;;;;;;5.70;2.47;;;20.10;99.90;;;;;;5038181;28;20235;-83
2023/07/12 09:47:27;;;;;;;5.18;2.25;;;20.10;99.90;;;;;;5042183;28;20262;-82
2023/07/12 09:50:06;;;;;;;4.82;2.50;;;20.10;99.90;;;;;;5042398;28;20201;-83
2023/07/12 09:52:39;;;;;;;4.47;2.20;;;20.20;99.90;;;;;;5039667;28;20189;-81
2023/07/12 09:55:10;;;;;;;5.55;2.35;;;20.30;99.90;;;;;;5038996;28;20166;-81
2023/07/12 09:57:48;;;;;;;4.35;2.22;;;20.30;99.90;;;;;;5056539;28;20639;-81
2023/07/12 10:00:20;;;;;;;3.28;2.20;;;20.70;99.90;;;;;;5056345;28;20201;-81
2023/07/12 10:03:04;;;;;;;5.38;1.90;;;21.40;1.00;;;;;;5037471;28;20167;-81
2023/07/12 10:05:31;;;;;;;6.22;2.60;;;21.80;1.00;;;;;;5038055;28;20189;-82
2023/07/12 10:08:14;;;;;;;6.18;2.05;;;21.90;1.00;;;;;;5039006;28;20189;-81
2023/07/12 10:11:09;;;;;;;5.18;1.98;;;21.90;1.00;;;;;;5037996;28;20309;-85
2023/07/12 10:13:42;;;;;;;3.55;1.90;;;21.90;1.00;;;;;;5038011;28;20163;-85
2023/07/12 10:16:17;;;;;;;7.40;2.13;;;22.10;1.00;;;;;;5055501;28;20179;-86
2023/07/12 10:18:44;;;;;;;4.88;2.17;;;21.90;99.90;;;;;;5037145;28;20578;-85
2023/07/12 10:21:17;;;;;;;9.77;2.28;;;21.90;1.00;;;;;;5036659;28;20178;-85
2023/07/12 10:23:48;;;;;;;4.30;1.98;;;21.50;1.00;;;;;;5055935;28;20540;-84
2023/07/12 10:26:15;;;;;;;8.27;2.75;;;21.40;1.00;;;;;;5054452;28;20279;-84
2023/07/12 10:29:03;;;;;;;6.97;2.17;;;21.40;1.00;;;;;;5037780;28;20202;-84
2023/07/12 10:31:47;;;;;;;7.18;2.00;;;21.40;1.00;;;;;;5040918;28;20169;-84
2023/07/12 10:34:31;;;;;;;6.95;2.25;;;21.40;1.00;;;;;;5058856;28;20568;-84
2023/07/12 10:37:03;;;;;;;4.97;2.25;;;21.10;1.00;;;;;;5041972;28;20287;-83
2023/07/12 10:39:29;;;;;;;5.35;2.10;;;21.30;1.00;;;;;;5063454;28;20198;-85
2023/07/12 10:42:05;;;;;;;6.63;2.20;;;21.50;1.00;;;;;;5042478;28;20543;-84
2023/07/12 10:44:36;;;;;;;4.95;2.20;;;21.40;1.00;;;;;;5062499;28;20162;-84
2023/07/12 10:47:09;;;;;;;6.28;2.30;;;21.60;1.00;;;;;;5059492;28;20163;-85
2023/07/12 10:50:02;;;;;;;4.18;2.00;;;21.60;1.00;;;;;;5060257;28;20260;-84
2023/07/12 10:52:33;;;;;;;4.35;2.03;;;21.70;1.00;;;;;;5039136;28;20194;-84
2023/07/12 10:55:02;;;;;;;4.78;2.15;;;22.00;1.00;;;;;;5060067;28;20174;-84
2023/07/12 10:57:37;;;;;;;5.40;2.10;;;22.40;99.90;;;;;;5041628;28;20208;-85
2023/07/12 11:00:20;;;;;;;3.85;1.90;;;22.50;99.90;;;;;;5060547;28;20186;-84
2023/07/12 11:02:48;;;;;;;6.53;2.13;;;22.50;99.90;;;;;;5063830;28;20162;-85
2023/07/12 11:05:55;;;;;;;4.18;2.00;;;22.70;99.90;;;;;;5043585;28;20614;-85
2023/07/12 11:08:33;;;;;;;4.35;2.22;;;22.40;99.90;;;;;;4960860;28;20177;-85
2023/07/12 11:11:08;;;;;;;6.40;1.75;;;22.40;99.90;;;;;;4977176;28;20173;-86
2023/07/12 11:13:41;;;;;;;6.53;2.22;;;22.50;99.90;;;;;;5018787;28;20205;-85
2023/07/12 11:16:17;;;;;;;5.57;2.10;;;22.50;99.90;;;;;;5058423;28;20170;-85
2023/07/12 11:18:56;;;;;;;6.35;2.40;;;22.80;99.90;;;;;;5040462;28;20236;-85
2023/07/12 11:21:46;;;;;;;3.78;2.10;;;22.90;99.90;;;;;;5039398;28;20196;-85
2023/07/12 11:24:35;;;;;;;4.93;2.10;;;23.00;99.90;;;;;;5057400;28;20615;-86
2023/07/12 11:27:02;;;;;;;6.22;2.85;;;22.90;99.90;;;;;;5039479;28;20252;-85
2023/07/12 11:29:30;;;;;;;3.78;2.03;;;22.90;99.90;;;;;;5039153;28;20230;-85
2023/07/12 11:32:25;;;;;;;6.50;2.13;;;22.80;99.90;;;;;;5058051;28;20311;-85
2023/07/12 11:35:19;;;;;;;4.07;1.80;;;22.80;99.90;;;;;;5039111;28;20182;-85
2023/07/12 11:37:48;;;;;;;4.90;1.90;;;23.00;99.90;;;;;;5038467;28;20214;-85
2023/07/12 11:40:21;;;;;;;3.30;1.92;;;22.90;99.90;;;;;;5038825;28;20697;-85
2023/07/12 11:42:47;;;;;;;4.80;1.80;;;22.60;99.90;;;;;;5039116;28;20257;-85
2023/07/12 11:45:17;;;;;;;5.95;2.10;;;22.30;99.90;;;;;;5057933;28;20171;-85
2023/07/12 11:47:51;;;;;;;3.10;2.00;;;22.50;99.90;;;;;;5039147;28;20556;-85
2023/07/12 11:50:25;;;;;;;6.22;2.10;;;22.70;99.90;;;;;;5039203;28;20233;-86
2023/07/12 11:52:52;;;;;;;4.95;1.85;;;22.50;99.90;;;;;;5039198;28;20173;-85
2023/07/12 11:55:25;;;;;;;7.93;2.20;;;22.30;99.90;;;;;;5056322;28;20171;-85
2023/07/12 11:57:51;;;;;;;6.38;2.35;;;22.50;99.90;;;;;;5038518;28;20564;-85
2023/07/12 12:00:23;;;;;;;5.53;2.10;;;22.80;99.90;;;;;;5056474;28;20186;-85
2023/07/12 12:02:55;;;;;;;4.45;2.10;;;22.90;99.90;;;;;;5057467;28;20183;-85
2023/07/12 12:05:27;;;;;;;5.20;2.05;;;22.80;99.90;;;;;;5057463;28;20162;-84
2023/07/12 12:07:55;;;;;;;4.75;1.90;;;22.90;99.90;;;;;;5059111;28;20158;-84
2023/07/12 12:10:25;;;;;;;3.47;1.90;;;23.20;99.90;;;;;;5057476;28;20198;-84
2023/07/12 12:12:52;;;;;;;4.50;2.10;;;23.60;99.90;;;;;;5057624;28;20561;-84
2023/07/12 12:15:24;;;;;;;3.95;1.85;;;23.50;99.90;;;;;;5056749;28;20265;-87
2023/07/12 12:17:51;;;;;;;5.53;2.05;;;23.60;99.90;;;;;;5038314;28;20248;-85
2023/07/12 12:20:18;;;;;;;4.05;2.00;;;23.60;99.90;;;;;;5039237;28;20285;-85
2023/07/12 12:23:04;;;;;;;3.95;1.90;;;23.70;99.90;;;;;;5058484;28;20170;-85
2023/07/12 12:25:30;;;;;;;4.97;1.77;;;23.80;99.90;;;;;;5056485;28;20247;-84
2023/07/12 12:27:57;;;;;;;5.22;1.92;;;24.00;99.90;;;;;;5056483;28;20551;-84
2023/07/12 12:30:26;;;;;;;8.27;2.20;;;24.00;99.90;;;;;;5056262;28;20202;-86
2023/07/12 12:33:24;;;;;;;3.33;1.80;;;23.40;99.90;;;;;;5039006;28;20277;-85
2023/07/12 12:35:58;;;;;;;4.70;1.85;;;23.20;99.90;;;;;;5056156;28;20205;-84
2023/07/12 12:38:35;;;;;;;5.53;1.83;;;23.10;99.90;;;;;;5039003;28;20189;-84
2023/07/12 12:41:16;;;;;;;3.05;1.70;;;23.10;99.90;;;;;;5038738;28;20200;-84
2023/07/12 12:44:13;;;;;;;4.20;2.33;;;23.20;99.90;;;;;;5056514;28;20178;-85
2023/07/12 12:46:40;;;;;;;3.67;1.83;;;23.50;99.90;;;;;;5038172;28;20170;-85
2023/07/12 12:49:20;;;;;;;6.57;2.00;;;23.50;99.90;;;;;;5056160;28;20270;-85
2023/07/12 12:51:53;;;;;;;4.20;2.10;;;23.60;99.90;;;;;;5038245;28;20183;-83
2023/07/12 12:54:18;;;;;;;2.83;1.60;;;23.70;99.90;;;;;;5056305;28;20665;-86
2023/07/12 12:56:45;;;;;;;2.05;1.50;;;24.20;99.90;;;;;;5056368;28;20175;-85
2023/07/12 12:59:14;;;;;;;2.25;1.30;;;24.50;99.90;;;;;;5055838;28;20194;-85